Welcome to Northern Hawkes Bay. New Zealand.
PWS Header
      nz Flag



Hit Counter


W3C Valid W3C Valid logo


    Wairoa

Select any of the Stations below to visit their websites.










Historic Data from Weather Underground
Select the location of interest below. Wairoa is the default. Please have patience, this Data is slow to load in.
Northern Hawkes Bay Historical Data
Daily Summary for December 4, 2017 Units:  English    Metric   Both
« Previous Day
Next Day »
Daily Weekly Monthly Yearly Custom
  High: Low: Average:
Temperature: 84.4 °F 58.1 °F 70.5 °F
Dew Point: 65.1 °F 55.9 °F 60.8 °F
Humidity: 99% 40% 74%
Wind Speed: 7.6mph 0mph 1.8mph
Wind Gust: 12.1mph - -
Wind- - SSW
Pressure: 30.1 in 30 in -
Precipitation: 0 in    
Historical Graphs
 
 
Tabular Data for December 4, 2017
Time Temperature Dew Point Pressure Wind Wind Speed Wind Gust Humidity Rainfall Rate (Hourly) solar
00:01 62.2 °F 60.3 °F 30.1 in Calm     93% 0 in 0 W/m2
00:06 62.2 °F 60.3 °F 30.1 in Calm     93% 0 in 0 W/m2
00:11 62.2 °F 60.3 °F 30.1 in Calm     93% 0 in 0 W/m2
00:16 62.2 °F 60.3 °F 30.1 in Calm     93% 0 in 0 W/m2
00:21 62.2 °F 60.3 °F 30.1 in Calm     93% 0 in 0 W/m2
00:26 62.2 °F 60.3 °F 30.1 in Calm     93% 0 in 0 W/m2
00:31 62.1 °F 60.1 °F 30.1 in Calm     93% 0 in 0 W/m2
00:36 62.1 °F 60.1 °F 30.1 in Calm     93% 0 in 0 W/m2
00:41 62.1 °F 60.1 °F 30.1 in Calm     93% 0 in 0 W/m2
00:46 62.1 °F 60.3 °F 30.1 in Calm     94% 0 in 0 W/m2
00:51 61.9 °F 60.3 °F 30.1 in Calm     94% 0 in 0 W/m2
00:56 61.7 °F 60.1 °F 30.1 in Calm     94% 0 in 0 W/m2
01:01 61.7 °F 60.1 °F 30.1 in Calm     94% 0 in 0 W/m2
01:06 61.3 °F 59.5 °F 30.1 in Calm     94% 0 in 0 W/m2
01:11 61.2 °F 59.7 °F 30.1 in Calm     95% 0 in 0 W/m2
01:16 61 °F 59.5 °F 30.1 in Calm     95% 0 in 0 W/m2
01:21 60.8 °F 59.4 °F 30.1 in Calm     95% 0 in 0 W/m2
01:26 60.6 °F 59.5 °F 30.1 in Calm     96% 0 in 0 W/m2
01:31 60.6 °F 59.5 °F 30.1 in Calm     96% 0 in 0 W/m2
01:36 60.6 °F 59.7 °F 30.1 in Calm     97% 0 in 0 W/m2
01:41 60.6 °F 59.7 °F 30.1 in Calm     97% 0 in 0 W/m2
01:46 60.6 °F 59.7 °F 30.1 in Calm     97% 0 in 0 W/m2
01:51 60.8 °F 59.7 °F 30.1 in Calm     96% 0 in 0 W/m2
01:56 60.8 °F 59.7 °F 30.1 in Calm     96% 0 in 0 W/m2
02:01 61 °F 59.7 °F 30.1 in Calm     96% 0 in 0 W/m2
02:06 61 °F 59.7 °F 30.1 in Calm     96% 0 in 0 W/m2
02:11 61.3 °F 59.9 °F 30.1 in Calm     95% 0 in 0 W/m2
02:17 61.3 °F 59.9 °F 30.1 in Calm     95% 0 in 0 W/m2
02:22 61.5 °F 60.1 °F 30.1 in Calm     95% 0 in 0 W/m2
02:27 61.5 °F 59.7 °F 30.1 in Calm     94% 0 in 0 W/m2
02:32 61.7 °F 60.1 °F 30.1 in Calm     94% 0 in 0 W/m2
02:37 61.7 °F 59.7 °F 30.1 in Calm     93% 0 in 0 W/m2
02:42 61.7 °F 59.7 °F 30.1 in Calm     93% 0 in 0 W/m2
02:47 61.7 °F 59.7 °F 30.1 in Calm     93% 0 in 0 W/m2
02:52 61.7 °F 59.7 °F 30.1 in Calm     93% 0 in 0 W/m2
02:57 61.7 °F 59.7 °F 30 in Calm     93% 0 in 0 W/m2
03:02 61.7 °F 59.7 °F 30.1 in Calm     93% 0 in 0 W/m2
03:07 61.7 °F 59.7 °F 30.1 in Calm     93% 0 in 0 W/m2
03:12 61.5 °F 59.5 °F 30 in Calm     93% 0 in 0 W/m2
03:17 61.3 °F 59.5 °F 30 in Calm     94% 0 in 0 W/m2
03:22 61.3 °F 59.5 °F 30 in Calm     94% 0 in 0 W/m2
03:27 61.2 °F 59.4 °F 30 in Calm     94% 0 in 0 W/m2
03:32 61 °F 59.4 °F 30 in Calm     94% 0 in 0 W/m2
03:37 60.8 °F 59.2 °F 30 in Calm     94% 0 in 0 W/m2
03:42 60.6 °F 59.5 °F 30 in Calm   0.7 mph 96% 0 in 0 W/m2
03:47 60.3 °F 59.2 °F 30 in Calm   0.7 mph 96% 0 in 0 W/m2
03:52 60.3 °F 59.2 °F 30 in Calm     96% 0 in 0 W/m2
03:57 60.3 °F 59.4 °F 30 in Calm     97% 0 in 0 W/m2
04:02 60.1 °F 59.2 °F 30 in Calm     97% 0 in 0 W/m2
04:07 59.7 °F 58.8 °F 30 in Calm     97% 0 in 0 W/m2
04:12 59.7 °F 58.8 °F 30 in Calm     97% 0 in 0 W/m2
04:17 59.7 °F 58.8 °F 30 in Calm     97% 0 in 0 W/m2
04:22 59.7 °F 59.2 °F 30 in Calm   3.1 mph 98% 0 in 0 W/m2
04:27 59.7 °F 59.2 °F 30 in NNW 0.7 mph 3.1 mph 98% 0 in 0 W/m2
04:47 59.4 °F 59.2 °F 30 in NNW 0.7 mph 3.1 mph 99% 0 in 0 W/m2
04:52 59.4 °F 59.2 °F 30 in NNW 0.7 mph 2.2 mph 99% 0 in 0 W/m2
04:57 59.2 °F 58.8 °F 30 in NW 0.7 mph 3.1 mph 99% 0 in 0 W/m2
05:02 59 °F 58.6 °F 30 in Calm   3.1 mph 99% 0 in 0 W/m2
05:07 58.8 °F 58.6 °F 30 in NNW 1.6 mph 3.1 mph 99% 0 in 0 W/m2
05:12 58.8 °F 58.6 °F 30 in North 1.6 mph 3.1 mph 99% 0 in 0 W/m2
05:17 58.8 °F 58.6 °F 30.1 in NNW 1.6 mph 3.1 mph 99% 0 in 0 W/m2
05:22 58.8 °F 58.6 °F 30.1 in NNW 0.7 mph 3.1 mph 99% 0 in 0 W/m2
05:27 58.6 °F 58.5 °F 30.1 in NNW 1.6 mph 3.1 mph 99% 0 in 0 W/m2
05:32 58.6 °F 58.5 °F 30.1 in Calm   2.2 mph 99% 0 in 0 W/m2
05:37 58.6 °F 58.5 °F 30.1 in NNW 0.7 mph 2.2 mph 99% 0 in 0 W/m2
05:42 58.5 °F 58.3 °F 30.1 in NNW 0.7 mph 2.2 mph 99% 0 in 2 W/m2
05:47 58.3 °F 57.9 °F 30.1 in NNW 1.6 mph 2.2 mph 99% 0 in 5 W/m2
05:52 58.3 °F 57.9 °F 30.1 in NW 1.6 mph 2.2 mph 99% 0 in 9 W/m2
05:57 58.1 °F 57.7 °F 30.1 in NW 0.7 mph 2.2 mph 99% 0 in 16 W/m2
06:03 58.1 °F 57.7 °F 30.1 in NNW 1.6 mph 3.1 mph 99% 0 in 21 W/m2
06:08 58.1 °F 57.7 °F 30.1 in NNW 0.7 mph 3.1 mph 99% 0 in 27 W/m2
06:13 58.3 °F 57.9 °F 30.1 in NW 1.6 mph 3.8 mph 99% 0 in 33 W/m2
06:18 58.3 °F 57.9 °F 30.1 in NW 2.2 mph 4.5 mph 99% 0 in 41 W/m2
06:23 58.8 °F 58.6 °F 30.1 in NW 0.7 mph 4.5 mph 99% 0 in 60 W/m2
06:33 59.7 °F 59.5 °F 30.1 in NNW 2.2 mph 4.5 mph 99% 0 in 76 W/m2
06:38 60.3 °F 60.1 °F 30.1 in NNW 2.2 mph 4.5 mph 99% 0 in 82 W/m2
06:43 60.8 °F 60.1 °F 30.1 in NNW 3.1 mph 4.5 mph 97% 0 in 88 W/m2
06:49 61.3 °F 60.3 °F 30.1 in NNW 3.1 mph 6 mph 96% 0 in 93 W/m2
06:55 61.7 °F 60.1 °F 30.1 in NNW 3.1 mph 6 mph 94% 0 in 102 W/m2
07:00 62.1 °F 60.3 °F 30.1 in NW 3.8 mph 6 mph 94% 0 in 110 W/m2
07:05 62.8 °F 60.4 °F 30.1 in NW 2.2 mph 6 mph 92% 0 in 118 W/m2
07:10 63.1 °F 60.4 °F 30.1 in NNW 3.8 mph 6 mph 91% 0 in 127 W/m2
07:15 63.7 °F 61 °F 30.1 in NNW 4.5 mph 6.9 mph 91% 0 in 140 W/m2
07:20 64 °F 60.8 °F 30.1 in NW 4.5 mph 7.6 mph 89% 0 in 158 W/m2
07:25 63.9 °F 60.3 °F 30.1 in NNW 3.1 mph 8.3 mph 88% 0 in 168 W/m2
07:30 64.9 °F 61.5 °F 30.1 in North 1.6 mph 8.3 mph 89% 0 in 184 W/m2
07:35 65.7 °F 61.3 °F 30.1 in NNW 4.5 mph 7.6 mph 86% 0 in 198 W/m2
07:40 65.5 °F 61 °F 30.1 in NNW 3.1 mph 7.6 mph 85% 0 in 207 W/m2
07:45 65.8 °F 61.2 °F 30.1 in NNW 1.6 mph 7.6 mph 85% 0 in 218 W/m2
07:50 66.7 °F 61.3 °F 30.1 in NNW 2.2 mph 5.4 mph 83% 0 in 230 W/m2
07:55 67.5 °F 61.9 °F 30.1 in NNW 3.1 mph 5.4 mph 82% 0 in 243 W/m2
08:00 67.6 °F 61.3 °F 30.1 in NNW 2.2 mph 5.4 mph 80% 0 in 255 W/m2
08:05 68.2 °F 61.2 °F 30.1 in NNW 2.2 mph 5.4 mph 78% 0 in 267 W/m2
08:10 68.4 °F 61.3 °F 30.1 in NNW 2.2 mph 5.4 mph 78% 0 in 282 W/m2
08:15 69.3 °F 62.1 °F 30.1 in Calm   4.5 mph 78% 0 in 296 W/m2
08:20 70.3 °F 62.1 °F 30.1 in Calm   4.5 mph 75% 0 in 312 W/m2
08:25 70.7 °F 61.5 °F 30.1 in NNW 1.6 mph 4.5 mph 73% 0 in 328 W/m2
08:30 71.1 °F 62.1 °F 30.1 in Calm   4.5 mph 73% 0 in 343 W/m2
08:35 72.7 °F 63.1 °F 30.1 in NW 0.7 mph 3.8 mph 72% 0 in 357 W/m2
08:40 73.2 °F 63.3 °F 30.1 in NNW 2.2 mph 3.8 mph 71% 0 in 373 W/m2
08:45 72.7 °F 62.8 °F 30.1 in Calm   3.8 mph 71% 0 in 385 W/m2
08:50 74.1 °F 64.6 °F 30.1 in Calm   3.8 mph 72% 0 in 401 W/m2
08:55 74.1 °F 63.3 °F 30.1 in Calm   3.8 mph 69% 0 in 417 W/m2
09:00 74.1 °F 63 °F 30.1 in West 0.7 mph 3.8 mph 68% 0 in 431 W/m2
09:17 75.6 °F 63.3 °F 30.1 in SSE 4.5 mph 6.9 mph 66% 0 in 488 W/m2
09:22 76.6 °F 64.6 °F 30.1 in Calm   6.9 mph 66% 0 in 507 W/m2
09:27 75.9 °F 63 °F 30.1 in Calm   6.9 mph 64% 0 in 524 W/m2
09:32 75.9 °F 63.3 °F 30.1 in SSE 1.6 mph 4.5 mph 65% 0 in 539 W/m2
09:37 75.4 °F 63.3 °F 30.1 in SSE 0.7 mph 4.5 mph 66% 0 in 554 W/m2
09:42 75.7 °F 64.6 °F 30.1 in South 0.7 mph 4.5 mph 68% 0 in 576 W/m2
09:48 76.6 °F 64.6 °F 30.1 in SSE 3.8 mph 5.4 mph 66% 0 in 603 W/m2
09:54 75.4 °F 63.7 °F 30.1 in South 3.1 mph 5.4 mph 67% 0 in 623 W/m2
09:59 74.7 °F 63.9 °F 30.1 in South 3.1 mph 5.4 mph 69% 0 in 645 W/m2
10:05 73.6 °F 63.1 °F 30.1 in South 3.8 mph 6 mph 70% 0 in 660 W/m2
10:22 72.9 °F 63 °F 30.1 in South 4.5 mph 8.3 mph 71% 0 in 702 W/m2
10:27 72.1 °F 63 °F 30.1 in South 5.4 mph 8.3 mph 73% 0 in 713 W/m2
10:32 72.5 °F 63.3 °F 30.1 in SSW 3.1 mph 7.6 mph 73% 0 in 717 W/m2
10:37 73 °F 63.5 °F 30.1 in SSW 5.4 mph 7.6 mph 72% 0 in 731 W/m2
10:42 72.3 °F 63.1 °F 30.1 in South 6 mph 9.2 mph 73% 0 in 741 W/m2
10:47 72 °F 63.7 °F 30.1 in South 3.1 mph 9.2 mph 75% 0 in 746 W/m2
10:52 72 °F 63.3 °F 30.1 in South 5.4 mph 9.2 mph 74% 0 in 753 W/m2
10:57 72 °F 63.7 °F 30.1 in South 3.1 mph 9.2 mph 75% 0 in 760 W/m2
11:02 72.7 °F 64.2 °F 30.1 in South 6 mph 9.2 mph 75% 0 in 768 W/m2
11:07 72.3 °F 63.7 °F 30.1 in South 5.4 mph 9.2 mph 74% 0 in 774 W/m2
11:12 72.9 °F 64.6 °F 30.1 in South 4.5 mph 9.2 mph 75% 0 in 783 W/m2
11:17 72.5 °F 63.9 °F 30.1 in South 3.1 mph 9.2 mph 74% 0 in 784 W/m2
11:22 72.3 °F 63.7 °F 30.1 in South 3.8 mph 9.2 mph 74% 0 in 787 W/m2
11:27 72.5 °F 64.2 °F 30.1 in South 3.8 mph 9.2 mph 75% 0 in 796 W/m2
11:32 72.7 °F 63.7 °F 30.1 in South 6 mph 9.2 mph 73% 0 in 803 W/m2
11:37 73 °F 63.9 °F 30.1 in SSE 3.1 mph 8.3 mph 73% 0 in 807 W/m2
11:42 73.9 °F 65.1 °F 30.1 in SSE 2.2 mph 8.3 mph 74% 0 in 814 W/m2
11:47 74.5 °F 64.9 °F 30.1 in SSE 3.1 mph 6.9 mph 72% 0 in 820 W/m2
11:52 73.8 °F 63.9 °F 30.1 in South 6 mph 8.3 mph 71% 0 in 826 W/m2
11:57 73.8 °F 64.2 °F 30.1 in South 2.2 mph 9.2 mph 72% 0 in 827 W/m2
12:02 74.3 °F 63.9 °F 30.1 in South 4.5 mph 9.2 mph 70% 0 in 831 W/m2
12:07 73.6 °F 63.1 °F 30.1 in South 3.8 mph 9.2 mph 70% 0 in 830 W/m2
12:12 73.6 °F 63.7 °F 30.1 in South 3.8 mph 8.3 mph 71% 0 in 829 W/m2
12:17 73.4 °F 63.5 °F 30.1 in South 3.8 mph 9.2 mph 71% 0 in 829 W/m2
12:22 73.6 °F 64 °F 30.1 in South 0.7 mph 9.2 mph 72% 0 in 833 W/m2
12:27 74.3 °F 63.9 °F 30.1 in SSE 3.1 mph 8.3 mph 70% 0 in 836 W/m2
12:32 74.7 °F 65.1 °F 30.1 in SSE 3.8 mph 7.6 mph 72% 0 in 838 W/m2
12:37 74.8 °F 64.4 °F 30.1 in South 4.5 mph 8.3 mph 70% 0 in 836 W/m2
12:42 74.8 °F 64.4 °F 30.1 in South 4.5 mph 8.3 mph 70% 0 in 833 W/m2
12:47 75.2 °F 63.9 °F 30.1 in SSE 6.9 mph 8.3 mph 68% 0 in 831 W/m2
12:52 75 °F 64.6 °F 30.1 in SE 1.6 mph 8.3 mph 70% 0 in 829 W/m2
12:57 75.6 °F 64.8 °F 30.1 in SE 2.2 mph 8.3 mph 69% 0 in 832 W/m2
13:02 76.1 °F 64.8 °F 30.1 in SSE 2.2 mph 6 mph 68% 0 in 832 W/m2
13:07 76.6 °F 64.9 °F 30.1 in SSE 3.1 mph 7.6 mph 67% 0 in 827 W/m2
13:12 75.9 °F 64.2 °F 30.1 in South 6.9 mph 9.8 mph 67% 0 in 819 W/m2
13:17 75.4 °F 63.7 °F 30.1 in South 2.2 mph 9.8 mph 67% 0 in 810 W/m2
13:22 75.6 °F 64.2 °F 30.1 in SSE 3.8 mph 9.2 mph 68% 0 in 809 W/m2
13:27 75.9 °F 65.1 °F 30.1 in SE 2.2 mph 9.2 mph 69% 0 in 808 W/m2
13:32 75.6 °F 63.9 °F 30.1 in SSE 5.4 mph 9.8 mph 67% 0 in 802 W/m2
13:37 75.2 °F 63.5 °F 30.1 in SSE 6 mph 9.8 mph 67% 0 in 795 W/m2
13:42 75 °F 64.2 °F 30.1 in SSE 2.2 mph 10.7 mph 69% 0 in 788 W/m2
13:47 76.1 °F 64 °F 30.1 in SSE 4.5 mph 10.7 mph 66% 0 in 788 W/m2
13:52 75.6 °F 63.9 °F 30.1 in SSE 1.6 mph 8.3 mph 67% 0 in 782 W/m2
13:57 75 °F 64.2 °F 30.1 in SSE 2.2 mph 9.8 mph 69% 0 in 772 W/m2
14:02 75.7 °F 64 °F 30.1 in SSE 3.1 mph 9.8 mph 67% 0 in 768 W/m2
14:07 75.6 °F 63.9 °F 30.1 in SSE 3.1 mph 9.8 mph 67% 0 in 763 W/m2
14:12 76.1 °F 64 °F 30 in SSE 3.1 mph 9.8 mph 66% 0 in 757 W/m2
14:17 76.1 °F 63.1 °F 30 in SE 3.1 mph 9.8 mph 64% 0 in 749 W/m2
14:22 76.1 °F 63.5 °F 30 in SE 3.8 mph 9.8 mph 65% 0 in 745 W/m2
14:27 76.1 °F 63.5 °F 30 in SE 3.8 mph 9.8 mph 65% 0 in 736 W/m2
14:32 76.1 °F 63.1 °F 30 in SE 6.9 mph 9.2 mph 64% 0 in 727 W/m2
14:37 76.6 °F 63.7 °F 30.1 in ESE 2.2 mph 9.2 mph 64% 0 in 723 W/m2
14:42 77.4 °F 63.3 °F 30 in ESE 3.1 mph 11.4 mph 62% 0 in 719 W/m2
14:47 77.2 °F 61.9 °F 30 in SE 4.5 mph 12.1 mph 59% 0 in 712 W/m2
14:53 77.7 °F 62.8 °F 30 in SE 5.4 mph 12.1 mph 60% 0 in 703 W/m2
14:58 78.4 °F 62.1 °F 30 in SE 3.8 mph 8.3 mph 57% 0 in 694 W/m2
15:03 79.2 °F 61.2 °F 30 in SE 2.2 mph 8.3 mph 54% 0 in 686 W/m2
15:08 79.9 °F 60.6 °F 30 in ESE 5.4 mph 12.1 mph 52% 0 in 682 W/m2
15:13 79.5 °F 60.4 °F 30 in ESE 3.1 mph 12.1 mph 52% 0 in 672 W/m2
15:18 79.9 °F 61.3 °F 30 in SE 3.1 mph 10.7 mph 53% 0 in 663 W/m2
15:23 80.2 °F 61.2 °F 30 in SSE 3.1 mph 9.8 mph 52% 0 in 654 W/m2
15:28 80.4 °F 59.5 °F 30 in SE 4.5 mph 8.3 mph 49% 0 in 643 W/m2
15:33 81 °F 58.8 °F 30 in ESE 3.8 mph 9.8 mph 47% 0 in 636 W/m2
15:38 81.7 °F 59.5 °F 30 in ESE 4.5 mph 9.8 mph 47% 0 in 629 W/m2
15:43 82.2 °F 57.6 °F 30 in SE 1.6 mph 9.2 mph 43% 0 in 620 W/m2
15:48 82.2 °F 57.6 °F 30 in SE 0.7 mph 9.8 mph 43% 0 in 605 W/m2
15:54 82.9 °F 60.1 °F 30 in SE 1.6 mph 9.8 mph 46% 0 in 600 W/m2
15:59 83.5 °F 60.6 °F 30 in SE 1.6 mph 8.3 mph 46% 0 in 590 W/m2
16:04 83.3 °F 60.4 °F 30 in SE 1.6 mph 7.6 mph 46% 0 in 578 W/m2
16:09 83.1 °F 61.3 °F 30 in SE 2.2 mph 9.8 mph 48% 0 in 564 W/m2
16:14 83.3 °F 61.5 °F 30 in SE 3.8 mph 9.8 mph 48% 0 in 553 W/m2
16:20 83.3 °F 61.5 °F 30 in SE 3.8 mph 7.6 mph 48% 0 in 539 W/m2
16:25 82.6 °F 61.5 °F 30 in SE 3.8 mph 11.4 mph 49% 0 in 524 W/m2
16:26 82.6 °F 61.5 °F 30 in ESE 0.7 mph 11.4 mph 49% 0 in 520 W/m2
16:28 82.6 °F 62.1 °F 30 in SE 3.8 mph 11.4 mph 50% 0 in 516 W/m2
16:29 82.6 °F 62.1 °F 30 in SE 3.1 mph 11.4 mph 50% 0 in 514 W/m2
16:32 82.4 °F 61.9 °F 30 in SE 5.4 mph 11.4 mph 50% 0 in 509 W/m2
16:37 81.9 °F 62.6 °F 30 in SSE 0.7 mph 9.2 mph 52% 0 in 493 W/m2
16:38 82 °F 62.8 °F 30 in SSE 2.2 mph 9.2 mph 52% 0 in 492 W/m2
16:43 82.9 °F 61.9 °F 30 in SE 2.2 mph 9.2 mph 49% 0 in 481 W/m2
16:48 83.5 °F 61.9 °F 30 in SE 1.6 mph 10.7 mph 48% 0 in 470 W/m2
16:54 83.7 °F 61.3 °F 30 in SE 2.2 mph 10.7 mph 47% 0 in 453 W/m2
16:59 83.7 °F 60.6 °F 30 in SE 2.2 mph 9.2 mph 46% 0 in 442 W/m2
17:04 83.7 °F 60.1 °F 30 in SE 1.6 mph 9.2 mph 45% 0 in 427 W/m2
17:09 83.5 °F 60.1 °F 30 in ESE 3.8 mph 8.3 mph 45% 0 in 414 W/m2
17:14 83.5 °F 60.1 °F 30 in ESE 3.1 mph 8.3 mph 45% 0 in 401 W/m2
17:19 84.2 °F 59.4 °F 30 in ESE 0.7 mph 8.3 mph 43% 0 in 387 W/m2
17:24 84 °F 59.2 °F 30 in ESE 4.5 mph 8.3 mph 43% 0 in 373 W/m2
17:29 83.8 °F 60.3 °F 30 in East 1.6 mph 8.3 mph 45% 0 in 361 W/m2
17:34 83.8 °F 59 °F 30 in ESE 0.7 mph 9.8 mph 43% 0 in 349 W/m2
17:39 84.4 °F 60.1 °F 30 in ESE 2.2 mph 9.8 mph 44% 0 in 335 W/m2
17:44 84.2 °F 57.4 °F 30 in ESE 3.1 mph 9.2 mph 40% 0 in 324 W/m2
17:49 82.9 °F 57.6 °F 30 in ESE 1.6 mph 9.2 mph 42% 0 in 310 W/m2
17:54 82.8 °F 57.9 °F 30 in ESE 3.1 mph 9.2 mph 43% 0 in 297 W/m2
17:59 83.3 °F 57.9 °F 30 in East 6 mph 9.2 mph 42% 0 in 286 W/m2
18:04 82.9 °F 58.8 °F 30 in East 3.1 mph 9.2 mph 44% 0 in 273 W/m2
18:09 83.3 °F 58.5 °F 30 in ESE 3.1 mph 9.2 mph 43% 0 in 261 W/m2
18:14 83.3 °F 58.5 °F 30 in SE 3.1 mph 8.3 mph 43% 0 in 251 W/m2
18:19 83.3 °F 58.5 °F 30 in SE 2.2 mph 8.3 mph 43% 0 in 238 W/m2
18:24 82.6 °F 57.9 °F 30 in ESE 3.1 mph 7.6 mph 43% 0 in 226 W/m2
18:29 82 °F 56.7 °F 30 in ESE 7.6 mph 10.7 mph 42% 0 in 215 W/m2
18:34 81.3 °F 56.7 °F 30 in ESE 0.7 mph 10.7 mph 43% 0 in 202 W/m2
18:39 81.3 °F 56.7 °F 30 in East 1.6 mph 9.2 mph 43% 0 in 189 W/m2
18:44 82 °F 57.4 °F 30 in ESE 0.7 mph 6 mph 43% 0 in 180 W/m2
18:49 82.2 °F 57.6 °F 30 in Calm   4.5 mph 43% 0 in 169 W/m2
18:54 81.7 °F 57.7 °F 30 in SE 0.7 mph 4.5 mph 44% 0 in 159 W/m2
18:59 81.7 °F 58.8 °F 30 in Calm   5.4 mph 46% 0 in 149 W/m2
19:04 81.7 °F 57.7 °F 30 in SE 2.2 mph 5.4 mph 44% 0 in 137 W/m2
19:10 80.2 °F 56.5 °F 30 in ESE 3.1 mph 8.3 mph 44% 0 in 120 W/m2
19:15 80.2 °F 56.5 °F 30 in ESE 2.2 mph 8.3 mph 44% 0 in 114 W/m2
19:20 79.7 °F 55.9 °F 30 in ESE 3.8 mph 6.9 mph 44% 0 in 102 W/m2
19:25 79.7 °F 56.5 °F 30 in East 4.5 mph 6.9 mph 45% 0 in 91 W/m2
19:30 79.2 °F 55.9 °F 30 in East 4.5 mph 6.9 mph 45% 0 in 76 W/m2
19:35 78.4 °F 57.2 °F 30 in East 4.5 mph 6.9 mph 48% 0 in 67 W/m2
19:40 78.1 °F 56.8 °F 30 in East 3.1 mph 6.9 mph 48% 0 in 51 W/m2
19:45 77 °F 57.6 °F 30 in East 3.1 mph 6.9 mph 51% 0 in 29 W/m2
19:50 75.4 °F 58.6 °F 30 in East 2.2 mph 6.9 mph 56% 0 in 25 W/m2
19:55 74.7 °F 58.8 °F 30 in Calm   6 mph 58% 0 in 22 W/m2
20:00 74.3 °F 59.2 °F 30 in Calm   4.5 mph 59% 0 in 17 W/m2
20:05 73.6 °F 58.8 °F 30 in Calm   1.6 mph 60% 0 in 10 W/m2
20:10 73 °F 59.7 °F 30 in Calm     63% 0 in 7 W/m2
20:15 72.1 °F 59.7 °F 30 in Calm     65% 0 in 4 W/m2
20:20 71.6 °F 59.2 °F 30 in Calm     65% 0 in 1 W/m2
20:21 71.6 °F 59.7 °F 30 in Calm     66% 0 in 0 W/m2
20:26 71.2 °F 60.3 °F 30 in Calm     68% 0 in 0 W/m2
20:31 71.1 °F 60.8 °F 30 in Calm     70% 0 in 0 W/m2
20:36 70.9 °F 60.6 °F 30 in Calm   1.6 mph 70% 0 in 0 W/m2
20:41 70.9 °F 60.6 °F 30 in NE 0.7 mph 2.2 mph 70% 0 in 0 W/m2
20:46 71.2 °F 60.6 °F 30 in Calm   2.2 mph 69% 0 in 0 W/m2
20:51 71.1 °F 61.2 °F 30 in Calm   2.2 mph 71% 0 in 0 W/m2
20:56 71.1 °F 61.5 °F 30 in Calm   2.2 mph 72% 0 in 0 W/m2
21:01 70.7 °F 61.3 °F 30 in Calm   1.6 mph 72% 0 in 0 W/m2
21:06 70.3 °F 61 °F 30 in Calm     72% 0 in 0 W/m2
21:22 69.3 °F 61.3 °F 30 in Calm   0.7 mph 76% 0 in 0 W/m2
21:27 68.9 °F 61.3 °F 30 in Calm   1.6 mph 77% 0 in 0 W/m2
21:32 68.9 °F 61.3 °F 30 in Calm   1.6 mph 77% 0 in 0 W/m2
21:37 68.5 °F 61.2 °F 30 in Calm   0.7 mph 77% 0 in 0 W/m2
21:42 68 °F 60.4 °F 30 in Calm   0.7 mph 77% 0 in 0 W/m2
21:47 67.6 °F 60.6 °F 30 in Calm     78% 0 in 0 W/m2
21:52 67.5 °F 60.6 °F 30 in Calm     79% 0 in 0 W/m2
21:57 67.3 °F 61 °F 30 in Calm     80% 0 in 0 W/m2
22:02 67.1 °F 61.2 °F 30 in Calm     81% 0 in 0 W/m2
22:07 67.1 °F 61.3 °F 30 in Calm   0.7 mph 82% 0 in 0 W/m2
22:12 67.1 °F 61.9 °F 30 in Calm   0.7 mph 83% 0 in 0 W/m2
22:17 67.1 °F 62.1 °F 30 in Calm     84% 0 in 0 W/m2
22:22 66.9 °F 62.1 °F 30 in Calm     84% 0 in 0 W/m2
22:27 66.7 °F 62.1 °F 30 in Calm   0.7 mph 85% 0 in 0 W/m2
22:46 65.1 °F 60.8 °F 30 in Calm     86% 0 in 0 W/m2
22:51 64.9 °F 61 °F 30 in Calm     87% 0 in 0 W/m2
22:56 64.9 °F 61 °F 30 in Calm     87% 0 in 0 W/m2
23:01 64.8 °F 60.8 °F 30 in Calm     87% 0 in 0 W/m2
23:06 64.6 °F 61 °F 30 in Calm     88% 0 in 0 W/m2
23:11 64.4 °F 60.8 °F 30 in Calm     88% 0 in 0 W/m2
23:16 64.2 °F 60.3 °F 30 in Calm     87% 0 in 0 W/m2
23:21 64.2 °F 60.6 °F 30 in Calm     88% 0 in 0 W/m2
23:26 64 °F 60.4 °F 30 in Calm     88% 0 in 0 W/m2
23:31 63.9 °F 60.3 °F 30 in Calm     88% 0 in 0 W/m2
23:36 63.9 °F 60.6 °F 30 in Calm     89% 0 in 0 W/m2
23:41 63.9 °F 61 °F 30 in Calm     90% 0 in 0 W/m2
23:46 63.9 °F 61.2 °F 30 in Calm     91% 0 in 0 W/m2
Northern Hawkes Bay. New Zealand Historic Data
Compliments of Weather Underground - 2.25 mb